sensor_id;sensor_type;location;lat;lon;timestamp;pressure;altitude;pressure_sealevel;temperature
64600;BMP280;6553;48.412;9.514;2023-11-18T00:02:00;71664.72;;;19.83
64600;BMP280;6553;48.412;9.514;2023-11-18T00:04:25;71662.47;;;19.84
64600;BMP280;6553;48.412;9.514;2023-11-18T00:06:51;71664.59;;;19.86
64600;BMP280;6553;48.412;9.514;2023-11-18T00:09:18;71664.06;;;19.85
64600;BMP280;6553;48.412;9.514;2023-11-18T00:11:43;71658.66;;;19.83
64600;BMP280;6553;48.412;9.514;2023-11-18T00:14:10;71663.53;;;19.85
64600;BMP280;6553;48.412;9.514;2023-11-18T00:16:37;71660.22;;;19.84
64600;BMP280;6553;48.412;9.514;2023-11-18T00:19:03;71659.69;;;19.84
64600;BMP280;6553;48.412;9.514;2023-11-18T00:21:31;71656.94;;;19.84
64600;BMP280;6553;48.412;9.514;2023-11-18T00:23:56;71654.28;;;19.81
64600;BMP280;6553;48.412;9.514;2023-11-18T00:26:22;71659.69;;;19.84
64600;BMP280;6553;48.412;9.514;2023-11-18T00:28:53;71661.28;;;19.85
64600;BMP280;6553;48.412;9.514;2023-11-18T00:31:19;71661.41;;;19.83
64600;BMP280;6553;48.412;9.514;2023-11-18T00:33:45;71662.34;;;19.86
64600;BMP280;6553;48.412;9.514;2023-11-18T00:36:10;71656.94;;;19.84
64600;BMP280;6553;48.412;9.514;2023-11-18T00:38:36;71661.41;;;19.83
64600;BMP280;6553;48.412;9.514;2023-11-18T00:41:02;71664.59;;;19.86
64600;BMP280;6553;48.412;9.514;2023-11-18T00:43:28;71661.81;;;19.86
64600;BMP280;6553;48.412;9.514;2023-11-18T00:45:54;71665.66;;;19.87
64600;BMP280;6553;48.412;9.514;2023-11-18T00:48:20;71662.97;;;19.84
64600;BMP280;6553;48.412;9.514;2023-11-18T00:50:45;71660.34;;;19.82
64600;BMP280;6553;48.412;9.514;2023-11-18T00:53:11;71661.94;;;19.83
64600;BMP280;6553;48.412;9.514;2023-11-18T00:55:37;71659.19;;;19.83
64600;BMP280;6553;48.412;9.514;2023-11-18T00:58:02;71660.22;;;19.84
64600;BMP280;6553;48.412;9.514;2023-11-18T01:00:28;71662.03;;;19.81
64600;BMP280;6553;48.412;9.514;2023-11-18T01:02:55;71666.28;;;19.85
64600;BMP280;6553;48.412;9.514;2023-11-18T01:05:22;71662.47;;;19.84
64600;BMP280;6553;48.412;9.514;2023-11-18T01:07:48;71661.94;;;19.83
64600;BMP280;6553;48.412;9.514;2023-11-18T01:10:14;71662.97;;;19.84
64600;BMP280;6553;48.412;9.514;2023-11-18T01:12:40;71663.53;;;19.85
64600;BMP280;6553;48.412;9.514;2023-11-18T01:15:07;71661.81;;;19.86
64600;BMP280;6553;48.412;9.514;2023-11-18T01:17:36;71658.50;;;19.85
64600;BMP280;6553;48.412;9.514;2023-11-18T01:20:02;71658.66;;;19.83
64600;BMP280;6553;48.412;9.514;2023-11-18T01:22:35;71662.97;;;19.84
64600;BMP280;6553;48.412;9.514;2023-11-18T01:25:01;71662.34;;;19.86
64600;BMP280;6553;48.412;9.514;2023-11-18T01:27:27;71657.56;;;19.82
64600;BMP280;6553;48.412;9.514;2023-11-18T01:29:54;71660.22;;;19.84
64600;BMP280;6553;48.412;9.514;2023-11-18T01:32:20;71659.69;;;19.84
64600;BMP280;6553;48.412;9.514;2023-11-18T01:34:46;71652.91;;;19.75
64600;BMP280;6553;48.412;9.514;2023-11-18T01:37:16;71667.38;;;19.86
64600;BMP280;6553;48.412;9.514;2023-11-18T01:39:42;71661.81;;;19.86
64600;BMP280;6553;48.412;9.514;2023-11-18T01:42:08;71664.59;;;19.86
64600;BMP280;6553;48.412;9.514;2023-11-18T01:44:34;71662.47;;;19.84
64600;BMP280;6553;48.412;9.514;2023-11-18T01:47:04;71663.53;;;19.85
64600;BMP280;6553;48.412;9.514;2023-11-18T01:49:34;71656.50;;;19.81
64600;BMP280;6553;48.412;9.514;2023-11-18T01:52:06;71658.50;;;19.85
64600;BMP280;6553;48.412;9.514;2023-11-18T01:54:37;71657.44;;;19.84
64600;BMP280;6553;48.412;9.514;2023-11-18T01:57:03;71659.69;;;19.84
64600;BMP280;6553;48.412;9.514;2023-11-18T01:59:32;71665.75;;;19.84
64600;BMP280;6553;48.412;9.514;2023-11-18T02:01:59;71660.75;;;19.85
64600;BMP280;6553;48.412;9.514;2023-11-18T02:04:25;71659.69;;;19.84
64600;BMP280;6553;48.412;9.514;2023-11-18T02:06:53;71662.97;;;19.84
64600;BMP280;6553;48.412;9.514;2023-11-18T02:09:20;71664.06;;;19.85
64600;BMP280;6553;48.412;9.514;2023-11-18T02:12:17;71665.75;;;19.84
64600;BMP280;6553;48.412;9.514;2023-11-18T02:14:46;71663.13;;;19.82
64600;BMP280;6553;48.412;9.514;2023-11-18T02:17:18;71664.72;;;19.83
64600;BMP280;6553;48.412;9.514;2023-11-18T02:19:46;71659.19;;;19.83
64600;BMP280;6553;48.412;9.514;2023-11-18T02:22:12;71654.41;;;19.79
64600;BMP280;6553;48.412;9.514;2023-11-18T02:24:38;71659.19;;;19.83
64600;BMP280;6553;48.412;9.514;2023-11-18T02:27:07;71661.41;;;19.83
64600;BMP280;6553;48.412;9.514;2023-11-18T02:29:39;71662.47;;;19.84
64600;BMP280;6553;48.412;9.514;2023-11-18T02:32:29;71661.94;;;19.83
64600;BMP280;6553;48.412;9.514;2023-11-18T02:35:09;71663.53;;;19.85
64600;BMP280;6553;48.412;9.514;2023-11-18T02:37:40;71662.97;;;19.84
64600;BMP280;6553;48.412;9.514;2023-11-18T02:40:09;71658.66;;;19.83
64600;BMP280;6553;48.412;9.514;2023-11-18T02:42:42;71661.28;;;19.85
64600;BMP280;6553;48.412;9.514;2023-11-18T02:45:11;71658.66;;;19.83
64600;BMP280;6553;48.412;9.514;2023-11-18T02:47:44;71662.47;;;19.84
64600;BMP280;6553;48.412;9.514;2023-11-18T02:50:11;71653.72;;;19.81
64600;BMP280;6553;48.412;9.514;2023-11-18T02:52:40;71659.19;;;19.83
64600;BMP280;6553;48.412;9.514;2023-11-18T02:55:08;71654.81;;;19.82
64600;BMP280;6553;48.412;9.514;2023-11-18T02:57:38;71661.41;;;19.83
64600;BMP280;6553;48.412;9.514;2023-11-18T03:00:08;71662.97;;;19.84
64600;BMP280;6553;48.412;9.514;2023-11-18T03:02:45;71660.34;;;19.82
64600;BMP280;6553;48.412;9.514;2023-11-18T03:05:12;71657.56;;;19.82
64600;BMP280;6553;48.412;9.514;2023-11-18T03:07:40;71655.88;;;19.83
64600;BMP280;6553;48.412;9.514;2023-11-18T03:10:07;71662.47;;;19.84
64600;BMP280;6553;48.412;9.514;2023-11-18T03:12:38;71660.88;;;19.82
64600;BMP280;6553;48.412;9.514;2023-11-18T03:15:06;71659.81;;;19.81
64600;BMP280;6553;48.412;9.514;2023-11-18T03:17:35;71659.81;;;19.81
64600;BMP280;6553;48.412;9.514;2023-11-18T03:20:00;71654.41;;;19.79
64600;BMP280;6553;48.412;9.514;2023-11-18T03:22:26;71653.19;;;19.80
64600;BMP280;6553;48.412;9.514;2023-11-18T03:24:52;71657.03;;;19.81
64600;BMP280;6553;48.412;9.514;2023-11-18T03:27:17;71657.69;;;19.79
64600;BMP280;6553;48.412;9.514;2023-11-18T03:29:44;71658.31;;;19.77
64600;BMP280;6553;48.412;9.514;2023-11-18T03:32:11;71655.34;;;19.82
64600;BMP280;6553;48.412;9.514;2023-11-18T03:34:38;71657.03;;;19.81
64600;BMP280;6553;48.412;9.514;2023-11-18T03:37:04;71658.72;;;19.80
64600;BMP280;6553;48.412;9.514;2023-11-18T03:39:30;71652.16;;;19.79
64600;BMP280;6553;48.412;9.514;2023-11-18T03:41:56;71658.72;;;19.80
64600;BMP280;6553;48.412;9.514;2023-11-18T03:44:23;71659.19;;;19.83
64600;BMP280;6553;48.412;9.514;2023-11-18T03:46:52;71652.78;;;19.77
64600;BMP280;6553;48.412;9.514;2023-11-18T03:49:17;71657.03;;;19.81
64600;BMP280;6553;48.412;9.514;2023-11-18T03:51:45;71659.81;;;19.81
64600;BMP280;6553;48.412;9.514;2023-11-18T03:54:11;71656.41;;;19.83
64600;BMP280;6553;48.412;9.514;2023-11-18T03:56:38;71658.09;;;19.82
64600;BMP280;6553;48.412;9.514;2023-11-18T03:59:04;71654.28;;;19.81
64600;BMP280;6553;48.412;9.514;2023-11-18T04:01:30;71660.75;;;19.85
64600;BMP280;6553;48.412;9.514;2023-11-18T04:03:56;71659.81;;;19.81
64600;BMP280;6553;48.412;9.514;2023-11-18T04:06:22;71659.28;;;19.81
64600;BMP280;6553;48.412;9.514;2023-11-18T04:08:50;71659.19;;;19.83
64600;BMP280;6553;48.412;9.514;2023-11-18T04:11:16;71661.50;;;19.80
64600;BMP280;6553;48.412;9.514;2023-11-18T04:13:44;71662.47;;;19.84
64600;BMP280;6553;48.412;9.514;2023-11-18T04:16:14;71661.94;;;19.83
64600;BMP280;6553;48.412;9.514;2023-11-18T04:18:44;71661.41;;;19.83
64600;BMP280;6553;48.412;9.514;2023-11-18T04:21:12;71662.56;;;19.81
64600;BMP280;6553;48.412;9.514;2023-11-18T04:23:40;71659.28;;;19.81
64600;BMP280;6553;48.412;9.514;2023-11-18T04:26:08;71657.69;;;19.79
64600;BMP280;6553;48.412;9.514;2023-11-18T04:28:37;71659.81;;;19.81
64600;BMP280;6553;48.412;9.514;2023-11-18T04:31:03;71653.72;;;19.81
64600;BMP280;6553;48.412;9.514;2023-11-18T04:33:31;71659.81;;;19.81
64600;BMP280;6553;48.412;9.514;2023-11-18T04:35:57;71654.41;;;19.79
64600;BMP280;6553;48.412;9.514;2023-11-18T04:38:23;71664.06;;;19.85
64600;BMP280;6553;48.412;9.514;2023-11-18T04:40:49;71658.66;;;19.83
64600;BMP280;6553;48.412;9.514;2023-11-18T04:43:15;71651.63;;;19.79
64600;BMP280;6553;48.412;9.514;2023-11-18T04:45:42;71659.28;;;19.81
64600;BMP280;6553;48.412;9.514;2023-11-18T04:48:10;71653.19;;;19.80
64600;BMP280;6553;48.412;9.514;2023-11-18T04:50:36;71655.97;;;19.80
64600;BMP280;6553;48.412;9.514;2023-11-18T04:53:01;71658.09;;;19.82
64600;BMP280;6553;48.412;9.514;2023-11-18T04:55:34;71658.72;;;19.80
64600;BMP280;6553;48.412;9.514;2023-11-18T04:58:00;71659.81;;;19.81
64600;BMP280;6553;48.412;9.514;2023-11-18T05:00:26;71654.94;;;19.79
64600;BMP280;6553;48.412;9.514;2023-11-18T05:02:54;71656.50;;;19.81
64600;BMP280;6553;48.412;9.514;2023-11-18T05:05:20;71657.69;;;19.79
64600;BMP280;6553;48.412;9.514;2023-11-18T05:07:47;71659.81;;;19.81
64600;BMP280;6553;48.412;9.514;2023-11-18T05:10:13;71658.09;;;19.82
64600;BMP280;6553;48.412;9.514;2023-11-18T05:12:39;71660.34;;;19.82
64600;BMP280;6553;48.412;9.514;2023-11-18T05:15:07;71661.50;;;19.80
64600;BMP280;6553;48.412;9.514;2023-11-18T05:17:37;71655.34;;;19.82
64600;BMP280;6553;48.412;9.514;2023-11-18T05:20:03;71655.47;;;19.80
64600;BMP280;6553;48.412;9.514;2023-11-18T05:22:29;71659.81;;;19.81
64600;BMP280;6553;48.412;9.514;2023-11-18T05:24:57;71657.56;;;19.82
64600;BMP280;6553;48.412;9.514;2023-11-18T05:27:23;71655.47;;;19.80
64600;BMP280;6553;48.412;9.514;2023-11-18T05:29:49;71648.03;;;19.73
64600;BMP280;6553;48.412;9.514;2023-11-18T05:32:22;71655.56;;;19.77
64600;BMP280;6553;48.412;9.514;2023-11-18T05:34:52;71647.50;;;19.72
64600;BMP280;6553;48.412;9.514;2023-11-18T05:37:23;71654.81;;;19.82
64600;BMP280;6553;48.412;9.514;2023-11-18T05:39:50;71653.19;;;19.80
64600;BMP280;6553;48.412;9.514;2023-11-18T05:42:25;71663.13;;;19.82
64600;BMP280;6553;48.412;9.514;2023-11-18T05:44:51;71661.00;;;19.80
64600;BMP280;6553;48.412;9.514;2023-11-18T05:47:25;71655.97;;;19.80
64600;BMP280;6553;48.412;9.514;2023-11-18T05:49:54;71653.72;;;19.81
64600;BMP280;6553;48.412;9.514;2023-11-18T05:52:21;71659.28;;;19.81
64600;BMP280;6553;48.412;9.514;2023-11-18T05:54:48;71652.78;;;19.77
64600;BMP280;6553;48.412;9.514;2023-11-18T05:57:15;71655.34;;;19.82
64600;BMP280;6553;48.412;9.514;2023-11-18T05:59:42;71650.03;;;19.77
64600;BMP280;6553;48.412;9.514;2023-11-18T06:02:08;71655.56;;;19.77
64600;BMP280;6553;48.412;9.514;2023-11-18T06:04:38;71648.97;;;19.76
64600;BMP280;6553;48.412;9.514;2023-11-18T06:07:04;71654.41;;;19.79
64600;BMP280;6553;48.412;9.514;2023-11-18T06:09:30;71659.94;;;19.79
64600;BMP280;6553;48.412;9.514;2023-11-18T06:11:56;71657.69;;;19.79
64600;BMP280;6553;48.412;9.514;2023-11-18T06:14:22;71658.72;;;19.80
64600;BMP280;6553;48.412;9.514;2023-11-18T06:16:48;71663.78;;;19.80
64600;BMP280;6553;48.412;9.514;2023-11-18T06:19:16;71654.41;;;19.79
64600;BMP280;6553;48.412;9.514;2023-11-18T06:21:42;71657.16;;;19.79
64600;BMP280;6553;48.412;9.514;2023-11-18T06:24:08;71656.50;;;19.81
64600;BMP280;6553;48.412;9.514;2023-11-18T06:26:36;71655.56;;;19.77
64600;BMP280;6553;48.412;9.514;2023-11-18T06:29:03;71650.03;;;19.77
64600;BMP280;6553;48.412;9.514;2023-11-18T06:31:30;71652.28;;;19.77
64600;BMP280;6553;48.412;9.514;2023-11-18T06:33:56;71655.03;;;19.77
64600;BMP280;6553;48.412;9.514;2023-11-18T06:36:22;71651.75;;;19.76
64600;BMP280;6553;48.412;9.514;2023-11-18T06:38:51;71656.63;;;19.78
64600;BMP280;6553;48.412;9.514;2023-11-18T06:41:20;71655.56;;;19.77
64600;BMP280;6553;48.412;9.514;2023-11-18T06:43:49;71655.03;;;19.77
64600;BMP280;6553;48.412;9.514;2023-11-18T06:46:26;71650.03;;;19.77
64600;BMP280;6553;48.412;9.514;2023-11-18T06:48:55;71654.50;;;19.76
64600;BMP280;6553;48.412;9.514;2023-11-18T06:51:25;71656.63;;;19.78
64600;BMP280;6553;48.412;9.514;2023-11-18T06:53:54;71651.75;;;19.76
64600;BMP280;6553;48.412;9.514;2023-11-18T06:56:26;71652.78;;;19.77
64600;BMP280;6553;48.412;9.514;2023-11-18T06:58:55;71657.16;;;19.79
64600;BMP280;6553;48.412;9.514;2023-11-18T07:01:21;71653.44;;;19.75
64600;BMP280;6553;48.412;9.514;2023-11-18T07:03:48;71656.09;;;19.78
64600;BMP280;6553;48.412;9.514;2023-11-18T07:06:18;71655.69;;;19.75
64600;BMP280;6553;48.412;9.514;2023-11-18T07:08:53;71650.16;;;19.75
64600;BMP280;6553;48.412;9.514;2023-11-18T07:11:20;71650.16;;;19.75
64600;BMP280;6553;48.412;9.514;2023-11-18T07:13:48;71653.44;;;19.75
64600;BMP280;6553;48.412;9.514;2023-11-18T07:16:15;71649.63;;;19.74
64600;BMP280;6553;48.412;9.514;2023-11-18T07:18:41;71649.06;;;19.74
64600;BMP280;6553;48.412;9.514;2023-11-18T07:21:10;71654.50;;;19.76
64600;BMP280;6553;48.412;9.514;2023-11-18T07:23:36;71648.44;;;19.76
64600;BMP280;6553;48.412;9.514;2023-11-18T07:26:02;71650.16;;;19.75
64600;BMP280;6553;48.412;9.514;2023-11-18T07:28:31;71650.69;;;19.75
64600;BMP280;6553;48.412;9.514;2023-11-18T07:30:57;71650.69;;;19.75
64600;BMP280;6553;48.412;9.514;2023-11-18T07:33:23;71656.63;;;19.78
64600;BMP280;6553;48.412;9.514;2023-11-18T07:35:49;71655.97;;;19.80
64600;BMP280;6553;48.412;9.514;2023-11-18T07:38:16;71655.97;;;19.80
64600;BMP280;6553;48.412;9.514;2023-11-18T07:40:42;71657.69;;;19.79
64600;BMP280;6553;48.412;9.514;2023-11-18T07:43:15;71660.88;;;19.82
64600;BMP280;6553;48.412;9.514;2023-11-18T07:45:41;71657.03;;;19.81
64600;BMP280;6553;48.412;9.514;2023-11-18T07:48:10;71649.63;;;19.74
64600;BMP280;6553;48.412;9.514;2023-11-18T07:50:38;71654.28;;;19.81
64600;BMP280;6553;48.412;9.514;2023-11-18T07:53:07;71655.34;;;19.82
64600;BMP280;6553;48.412;9.514;2023-11-18T07:55:34;71662.97;;;19.84
64600;BMP280;6553;48.412;9.514;2023-11-18T07:58:01;71654.94;;;19.79
64600;BMP280;6553;48.412;9.514;2023-11-18T08:00:27;71658.25;;;19.80
64600;BMP280;6553;48.412;9.514;2023-11-18T08:02:57;71654.94;;;19.79
64600;BMP280;6553;48.412;9.514;2023-11-18T08:05:28;71666.81;;;19.85
64600;BMP280;6553;48.412;9.514;2023-11-18T08:07:54;71659.69;;;19.84
64600;BMP280;6553;48.412;9.514;2023-11-18T08:10:19;71663.13;;;19.82
64600;BMP280;6553;48.412;9.514;2023-11-18T08:12:47;71661.94;;;19.83
64600;BMP280;6553;48.412;9.514;2023-11-18T08:15:13;71662.03;;;19.81
64600;BMP280;6553;48.412;9.514;2023-11-18T08:17:39;71662.47;;;19.84
64600;BMP280;6553;48.412;9.514;2023-11-18T08:20:06;71661.28;;;19.85
64600;BMP280;6553;48.412;9.514;2023-11-18T08:22:41;71663.41;;;19.87
64600;BMP280;6553;48.412;9.514;2023-11-18T08:25:10;71657.97;;;19.85
64600;BMP280;6553;48.412;9.514;2023-11-18T08:27:39;71660.63;;;19.87
64600;BMP280;6553;48.412;9.514;2023-11-18T08:30:07;71660.22;;;19.84
64600;BMP280;6553;48.412;9.514;2023-11-18T08:32:40;71666.72;;;19.88
64600;BMP280;6553;48.412;9.514;2023-11-18T08:35:07;71660.22;;;19.84
64600;BMP280;6553;48.412;9.514;2023-11-18T08:37:40;71671.06;;;19.89
64600;BMP280;6553;48.412;9.514;2023-11-18T08:40:08;71661.81;;;19.86
64600;BMP280;6553;48.412;9.514;2023-11-18T08:42:49;71664.06;;;19.85
64600;BMP280;6553;48.412;9.514;2023-11-18T08:45:16;71666.19;;;19.87
64600;BMP280;6553;48.412;9.514;2023-11-18T08:47:43;71666.28;;;19.85
64600;BMP280;6553;48.412;9.514;2023-11-18T08:50:10;71664.19;;;19.83
64600;BMP280;6553;48.412;9.514;2023-11-18T08:52:39;71666.19;;;19.87
64600;BMP280;6553;48.412;9.514;2023-11-18T08:55:15;71661.72;;;19.88
64600;BMP280;6553;48.412;9.514;2023-11-18T08:57:49;71664.47;;;19.88
64600;BMP280;6553;48.412;9.514;2023-11-18T09:00:31;71662.22;;;19.89
64600;BMP280;6553;48.412;9.514;2023-11-18T09:03:15;71667.25;;;19.88
64600;BMP280;6553;48.412;9.514;2023-11-18T09:05:57;71666.59;;;19.90
64600;BMP280;6553;48.412;9.514;2023-11-18T09:08:31;71663.41;;;19.87
64600;BMP280;6553;48.412;9.514;2023-11-18T09:11:09;71666.06;;;19.90
64600;BMP280;6553;48.412;9.514;2023-11-18T09:13:50;71667.13;;;19.91
64600;BMP280;6553;48.412;9.514;2023-11-18T09:16:25;71668.31;;;19.89
64600;BMP280;6553;48.412;9.514;2023-11-18T09:18:55;71671.50;;;19.92
64600;BMP280;6553;48.412;9.514;2023-11-18T09:21:24;71663.31;;;19.90
64600;BMP280;6553;48.412;9.514;2023-11-18T09:23:53;71661.72;;;19.88
64600;BMP280;6553;48.412;9.514;2023-11-18T09:26:20;71669.25;;;19.93
64600;BMP280;6553;48.412;9.514;2023-11-18T09:28:46;71673.75;;;19.92
64600;BMP280;6553;48.412;9.514;2023-11-18T09:31:15;71670.84;;;19.94
64600;BMP280;6553;48.412;9.514;2023-11-18T09:33:43;71665.97;;;19.92
64600;BMP280;6553;48.412;9.514;2023-11-18T09:36:26;71671.50;;;19.92
64600;BMP280;6553;48.412;9.514;2023-11-18T09:38:54;71674.78;;;19.93
64600;BMP280;6553;48.412;9.514;2023-11-18T09:41:22;71668.19;;;19.92
64600;BMP280;6553;48.412;9.514;2023-11-18T09:43:50;71668.19;;;19.92
64600;BMP280;6553;48.412;9.514;2023-11-18T09:46:25;71670.31;;;19.94
64600;BMP280;6553;48.412;9.514;2023-11-18T09:48:53;71668.59;;;19.95
64600;BMP280;6553;48.412;9.514;2023-11-18T09:51:28;71677.31;;;19.98
64600;BMP280;6553;48.412;9.514;2023-11-18T09:54:12;71665.97;;;19.92
64600;BMP280;6553;48.412;9.514;2023-11-18T10:00:02;71674.69;;;19.95
64600;BMP280;6553;48.412;9.514;2023-11-18T10:02:53;71678.00;;;19.96
64600;BMP280;6553;48.412;9.514;2023-11-18T10:05:22;71681.81;;;19.97
64600;BMP280;6553;48.412;9.514;2023-11-18T10:07:50;71675.22;;;19.96
64600;BMP280;6553;48.412;9.514;2023-11-18T10:10:16;71676.81;;;19.97
64600;BMP280;6553;48.412;9.514;2023-11-18T10:12:47;71677.84;;;19.98
64600;BMP280;6553;48.412;9.514;2023-11-18T10:15:24;71674.16;;;19.95
64600;BMP280;6553;48.412;9.514;2023-11-18T10:17:52;71677.44;;;19.95
64600;BMP280;6553;48.412;9.514;2023-11-18T10:23:15;71679.56;;;19.97
64600;BMP280;6553;48.412;9.514;2023-11-18T10:25:56;71671.28;;;19.97
64600;BMP280;6553;48.412;9.514;2023-11-18T10:28:34;71679.03;;;19.97
64600;BMP280;6553;48.412;9.514;2023-11-18T10:31:04;71683.41;;;19.98
64600;BMP280;6553;48.412;9.514;2023-11-18T10:33:32;71678.41;;;19.99
64600;BMP280;6553;48.412;9.514;2023-11-18T10:35:59;71677.31;;;19.98
64600;BMP280;6553;48.412;9.514;2023-11-18T10:38:30;71678.00;;;19.96
64600;BMP280;6553;48.412;9.514;2023-11-18T10:40:58;71676.81;;;19.97
64600;BMP280;6553;48.412;9.514;2023-11-18T10:43:27;71681.69;;;19.99
64600;BMP280;6553;48.412;9.514;2023-11-18T10:46:12;71673.59;;;19.94
64600;BMP280;6553;48.412;9.514;2023-11-18T10:48:44;71677.31;;;19.98
64600;BMP280;6553;48.412;9.514;2023-11-18T10:51:14;71683.72;;;20.04
64600;BMP280;6553;48.412;9.514;2023-11-18T10:53:47;71681.03;;;20.01
64600;BMP280;6553;48.412;9.514;2023-11-18T10:56:24;71678.94;;;19.99
64600;BMP280;6553;48.412;9.514;2023-11-18T10:59:14;71684.88;;;20.02
64600;BMP280;6553;48.412;9.514;2023-11-18T11:01:44;71676.69;;;20.00
64600;BMP280;6553;48.412;9.514;2023-11-18T11:04:13;71675.63;;;19.99
64600;BMP280;6553;48.412;9.514;2023-11-18T11:06:49;71680.53;;;20.01
64600;BMP280;6553;48.412;9.514;2023-11-18T11:09:19;71674.56;;;19.98
64600;BMP280;6553;48.412;9.514;2023-11-18T11:11:57;71670.22;;;19.96
64600;BMP280;6553;48.412;9.514;2023-11-18T11:14:48;71672.97;;;19.96
64600;BMP280;6553;48.412;9.514;2023-11-18T11:17:19;71676.69;;;20.00
64600;BMP280;6553;48.412;9.514;2023-11-18T11:20:07;71678.94;;;19.99
64600;BMP280;6553;48.412;9.514;2023-11-18T11:23:21;71678.28;;;20.01
64600;BMP280;6553;48.412;9.514;2023-11-18T11:26:06;71678.94;;;19.99
64600;BMP280;6553;48.412;9.514;2023-11-18T11:28:42;71678.94;;;19.99
64600;BMP280;6553;48.412;9.514;2023-11-18T11:31:21;71676.03;;;20.02
64600;BMP280;6553;48.412;9.514;2023-11-18T11:34:02;71677.84;;;19.98
64600;BMP280;6553;48.412;9.514;2023-11-18T11:36:42;71677.78;;;20.01
64600;BMP280;6553;48.412;9.514;2023-11-18T11:39:13;71676.16;;;19.99
64600;BMP280;6553;48.412;9.514;2023-11-18T11:41:50;71678.81;;;20.02
64600;BMP280;6553;48.412;9.514;2023-11-18T11:44:17;71675.09;;;19.98
64600;BMP280;6553;48.412;9.514;2023-11-18T11:46:50;71677.84;;;19.98
64600;BMP280;6553;48.412;9.514;2023-11-18T11:49:23;71673.41;;;19.99
64600;BMP280;6553;48.412;9.514;2023-11-18T11:52:22;71668.31;;;19.89
64600;BMP280;6553;48.412;9.514;2023-11-18T11:55:12;71687.66;;;20.02
64600;BMP280;6553;48.412;9.514;2023-11-18T11:57:41;71682.25;;;20.00
64600;BMP280;6553;48.412;9.514;2023-11-18T12:00:11;71677.84;;;19.98
64600;BMP280;6553;48.412;9.514;2023-11-18T12:02:50;71684.34;;;20.02
64600;BMP280;6553;48.412;9.514;2023-11-18T12:05:23;71678.28;;;20.01
64600;BMP280;6553;48.412;9.514;2023-11-18T12:07:53;71678.81;;;20.02
64600;BMP280;6553;48.412;9.514;2023-11-18T12:10:21;71678.94;;;19.99
64600;BMP280;6553;48.412;9.514;2023-11-18T12:13:10;71681.03;;;20.01
64600;BMP280;6553;48.412;9.514;2023-11-18T12:15:52;71679.34;;;20.02
64600;BMP280;6553;48.412;9.514;2023-11-18T12:18:29;71681.56;;;20.02
64600;BMP280;6553;48.412;9.514;2023-11-18T12:20:57;71675.75;;;19.96
64600;BMP280;6553;48.412;9.514;2023-11-18T12:23:28;71677.84;;;19.98
64600;BMP280;6553;48.412;9.514;2023-11-18T12:25:55;71683.81;;;20.01
64600;BMP280;6553;48.412;9.514;2023-11-18T12:28:31;71672.97;;;19.96
64600;BMP280;6553;48.412;9.514;2023-11-18T12:31:01;71676.56;;;20.02
64600;BMP280;6553;48.412;9.514;2023-11-18T12:36:48;71674.56;;;19.98
64600;BMP280;6553;48.412;9.514;2023-11-18T12:39:37;71673.41;;;19.99
64600;BMP280;6553;48.412;9.514;2023-11-18T12:42:07;71677.31;;;19.98
64600;BMP280;6553;48.412;9.514;2023-11-18T12:48:13;71675.63;;;19.99
64600;BMP280;6553;48.412;9.514;2023-11-18T12:50:42;71677.84;;;19.98
64600;BMP280;6553;48.412;9.514;2023-11-18T12:53:14;71671.28;;;19.97
64600;BMP280;6553;48.412;9.514;2023-11-18T12:55:41;71674.56;;;19.98
64600;BMP280;6553;48.412;9.514;2023-11-18T12:58:07;71675.75;;;19.96
64600;BMP280;6553;48.412;9.514;2023-11-18T13:00:33;71676.28;;;19.97
64600;BMP280;6553;48.412;9.514;2023-11-18T13:03:01;71670.72;;;19.97
64600;BMP280;6553;48.412;9.514;2023-11-18T13:05:27;71678.53;;;19.96
64600;BMP280;6553;48.412;9.514;2023-11-18T13:07:56;71675.63;;;19.99
64600;BMP280;6553;48.412;9.514;2023-11-18T13:10:23;71682.09;;;20.02
64600;BMP280;6553;48.412;9.514;2023-11-18T13:12:49;71677.84;;;19.98
64600;BMP280;6553;48.412;9.514;2023-11-18T13:15:16;71673.41;;;19.99
64600;BMP280;6553;48.412;9.514;2023-11-18T13:20:23;71674.47;;;20.00
64600;BMP280;6553;48.412;9.514;2023-11-18T13:22:50;71676.28;;;19.97
64600;BMP280;6553;48.412;9.514;2023-11-18T13:25:16;71676.16;;;19.99
64600;BMP280;6553;48.412;9.514;2023-11-18T13:27:43;71675.09;;;19.98
64600;BMP280;6553;48.412;9.514;2023-11-18T13:30:10;71676.81;;;19.97
64600;BMP280;6553;48.412;9.514;2023-11-18T13:32:42;71676.16;;;19.99
64600;BMP280;6553;48.412;9.514;2023-11-18T13:35:10;71680.09;;;19.98
64600;BMP280;6553;48.412;9.514;2023-11-18T13:37:36;71678.41;;;19.99
64600;BMP280;6553;48.412;9.514;2023-11-18T13:40:02;71679.03;;;19.97
64600;BMP280;6553;48.412;9.514;2023-11-18T13:42:31;71678.53;;;19.96
64600;BMP280;6553;48.412;9.514;2023-11-18T13:45:12;71680.63;;;19.98
64600;BMP280;6553;48.412;9.514;2023-11-18T13:47:49;71680.09;;;19.98
64600;BMP280;6553;48.412;9.514;2023-11-18T13:50:16;71678.94;;;19.99
64600;BMP280;6553;48.412;9.514;2023-11-18T13:52:43;71674.03;;;19.97
64600;BMP280;6553;48.412;9.514;2023-11-18T13:55:15;71674.56;;;19.98
64600;BMP280;6553;48.412;9.514;2023-11-18T13:57:43;71675.22;;;19.96
64600;BMP280;6553;48.412;9.514;2023-11-18T14:00:11;71673.59;;;19.94
64600;BMP280;6553;48.412;9.514;2023-11-18T14:02:41;71677.44;;;19.95
64600;BMP280;6553;48.412;9.514;2023-11-18T14:05:17;71673.59;;;19.94
64600;BMP280;6553;48.412;9.514;2023-11-18T14:07:47;71686.91;;;20.07
64600;BMP280;6553;48.412;9.514;2023-11-18T14:10:13;71687.97;;;20.08
64600;BMP280;6553;48.412;9.514;2023-11-18T14:12:40;71671.78;;;19.98
64600;BMP280;6553;48.412;9.514;2023-11-18T14:15:06;71681.56;;;20.02
64600;BMP280;6553;48.412;9.514;2023-11-18T14:17:35;71674.56;;;19.98
64600;BMP280;6553;48.412;9.514;2023-11-18T14:20:02;71676.28;;;19.97
64600;BMP280;6553;48.412;9.514;2023-11-18T14:22:28;71682.09;;;20.02
64600;BMP280;6553;48.412;9.514;2023-11-18T14:24:53;71678.81;;;20.02
64600;BMP280;6553;48.412;9.514;2023-11-18T14:27:19;71675.75;;;19.96
64600;BMP280;6553;48.412;9.514;2023-11-18T14:29:45;71680.09;;;19.98
64600;BMP280;6553;48.412;9.514;2023-11-18T14:32:12;71676.16;;;19.99
64600;BMP280;6553;48.412;9.514;2023-11-18T14:34:39;71679.03;;;19.97
64600;BMP280;6553;48.412;9.514;2023-11-18T14:37:07;71677.31;;;19.98
64600;BMP280;6553;48.412;9.514;2023-11-18T14:39:33;71660.63;;;19.87
64600;BMP280;6553;48.412;9.514;2023-11-18T14:42:01;71669.25;;;19.93
64600;BMP280;6553;48.412;9.514;2023-11-18T14:44:27;71670.22;;;19.96
64600;BMP280;6553;48.412;9.514;2023-11-18T14:46:53;71672.97;;;19.96
64600;BMP280;6553;48.412;9.514;2023-11-18T14:49:20;71670.22;;;19.96
64600;BMP280;6553;48.412;9.514;2023-11-18T14:51:45;71680.63;;;19.98